createdAt,value
2023-05-24T00:00:46.604Z,8.93
2023-05-24T00:03:16.329Z,11.03
2023-05-24T00:05:46.696Z,10.77
2023-05-24T00:08:16.004Z,9.50
2023-05-24T00:10:45.323Z,9.77
2023-05-24T00:13:14.972Z,7.90
2023-05-24T00:15:42.958Z,10.17
2023-05-24T00:18:10.985Z,11.27
2023-05-24T00:20:39.040Z,8.47
2023-05-24T00:23:07.967Z,7.53
2023-05-24T00:25:35.935Z,9.50
2023-05-24T00:28:05.150Z,11.60
2023-05-24T00:30:33.121Z,7.30
2023-05-24T00:33:01.276Z,6.47
2023-05-24T00:35:31.654Z,9.83
2023-05-24T00:37:59.652Z,12.17
2023-05-24T00:40:27.572Z,10.10
2023-05-24T00:42:55.586Z,12.50
2023-05-24T00:45:24.856Z,7.83
2023-05-24T00:47:52.948Z,10.07
2023-05-24T00:50:21.911Z,9.33
2023-05-24T00:52:52.526Z,10.20
2023-05-24T00:55:21.063Z,8.03
2023-05-24T00:58:08.825Z,11.77
2023-05-24T01:00:38.690Z,9.87
2023-05-24T01:03:07.450Z,7.23
2023-05-24T01:05:35.454Z,7.67
2023-05-24T01:08:10.724Z,8.90
2023-05-24T01:10:46.511Z,7.97
2023-05-24T01:13:25.259Z,8.30
2023-05-24T01:16:01.612Z,10.90
2023-05-24T01:18:34.209Z,9.70
2023-05-24T01:21:14.737Z,7.90
2023-05-24T01:23:48.668Z,6.83
2023-05-24T01:26:27.466Z,7.47
2023-05-24T01:28:56.894Z,9.27
2023-05-24T01:31:25.562Z,8.23
2023-05-24T01:33:53.644Z,10.87
2023-05-24T01:36:21.854Z,10.23
2023-05-24T01:38:51.173Z,8.03
2023-05-24T01:41:27.929Z,9.93
2023-05-24T01:44:04.727Z,7.70
2023-05-24T01:46:37.550Z,6.77
2023-05-24T01:49:14.486Z,8.63
2023-05-24T01:51:49.802Z,7.40
2023-05-24T01:54:24.225Z,6.70
2023-05-24T01:56:55.124Z,8.00
2023-05-24T01:59:27.021Z,7.53
2023-05-24T02:01:55.751Z,7.53
2023-05-24T02:04:26.129Z,13.90
2023-05-24T02:06:54.112Z,12.53
2023-05-24T02:09:22.034Z,7.20
2023-05-24T02:11:51.151Z,7.33
2023-05-24T02:14:19.899Z,9.47
2023-05-24T02:16:50.735Z,9.17
2023-05-24T02:19:20.021Z,6.83
2023-05-24T02:21:47.920Z,10.90
2023-05-24T02:24:16.516Z,8.67
2023-05-24T02:26:44.392Z,9.77
2023-05-24T02:29:12.561Z,7.97
2023-05-24T02:31:40.864Z,10.20
2023-05-24T02:34:10.516Z,8.80
2023-05-24T02:36:38.605Z,10.37
2023-05-24T02:39:06.580Z,7.60
2023-05-24T02:41:34.621Z,7.10
2023-05-24T02:44:02.517Z,8.57
2023-05-24T02:46:30.484Z,5.70
2023-05-24T02:48:58.490Z,7.43
2023-05-24T02:51:27.745Z,6.30
2023-05-24T02:53:55.713Z,10.50
2023-05-24T02:56:23.734Z,8.77
2023-05-24T02:58:54.226Z,7.83
2023-05-24T03:01:22.681Z,5.00
2023-05-24T03:03:52.521Z,7.43
2023-05-24T03:06:20.926Z,9.10
2023-05-24T03:08:51.100Z,12.50
2023-05-24T03:11:22.099Z,9.83
2023-05-24T03:13:50.674Z,11.30
2023-05-24T03:16:19.730Z,9.07
2023-05-24T03:18:50.614Z,9.70
2023-05-24T03:21:20.685Z,7.00
2023-05-24T03:23:50.613Z,10.93
2023-05-24T03:26:20.566Z,10.80
2023-05-24T03:28:50.527Z,10.10
2023-05-24T03:31:24.065Z,8.63
2023-05-24T03:33:52.322Z,10.93
2023-05-24T03:36:21.164Z,7.73
2023-05-24T03:38:50.815Z,10.70
2023-05-24T03:41:20.371Z,8.10
2023-05-24T03:43:48.358Z,9.27
2023-05-24T03:46:18.551Z,9.90
2023-05-24T03:48:46.610Z,10.77
2023-05-24T03:51:14.584Z,8.63
2023-05-24T03:53:42.498Z,12.53
2023-05-24T03:56:12.129Z,8.70
2023-05-24T03:58:40.034Z,8.00
2023-05-24T04:01:08.098Z,5.90
2023-05-24T04:03:36.182Z,8.40
2023-05-24T04:06:04.306Z,8.70
2023-05-24T04:08:32.483Z,9.97
2023-05-24T04:11:00.456Z,10.13
2023-05-24T04:13:29.801Z,13.87
2023-05-24T04:15:57.846Z,10.27
2023-05-24T04:18:25.895Z,9.47
2023-05-24T04:20:56.072Z,8.97
2023-05-24T04:23:23.985Z,9.27
2023-05-24T04:25:52.116Z,9.17
2023-05-24T04:28:22.264Z,9.67
2023-05-24T04:30:52.292Z,14.90
2023-05-24T04:33:20.652Z,8.50
2023-05-24T04:35:49.260Z,9.67
2023-05-24T04:38:17.229Z,8.00
2023-05-24T04:40:45.249Z,9.97
2023-05-24T04:43:13.498Z,8.23
2023-05-24T04:45:41.819Z,9.37
2023-05-24T04:48:11.138Z,12.67
2023-05-24T04:50:39.106Z,8.43
2023-05-24T04:53:07.059Z,8.63
2023-05-24T04:55:35.841Z,12.73
2023-05-24T04:58:04.342Z,12.60
2023-05-24T05:00:32.754Z,11.17
2023-05-24T05:03:00.866Z,9.00
2023-05-24T05:05:30.233Z,10.13
2023-05-24T05:07:58.329Z,12.33
2023-05-24T05:10:26.740Z,10.13
2023-05-24T05:12:54.654Z,12.07
2023-05-24T05:15:24.598Z,9.83
2023-05-24T05:17:52.660Z,11.83
2023-05-24T05:20:41.890Z,14.90
2023-05-24T05:23:10.022Z,16.40
2023-05-24T05:25:37.958Z,14.27
2023-05-24T05:28:05.885Z,17.33
2023-05-24T05:30:33.779Z,16.07
2023-05-24T05:33:01.845Z,15.90
2023-05-24T05:35:29.985Z,17.33
2023-05-24T05:37:59.432Z,17.63
2023-05-24T05:40:27.372Z,13.57
2023-05-24T05:42:55.413Z,15.10
2023-05-24T05:45:23.281Z,16.53
2023-05-24T05:47:51.357Z,14.07
2023-05-24T05:50:19.386Z,16.07
2023-05-24T05:52:47.345Z,16.83
2023-05-24T05:55:16.637Z,12.27
2023-05-24T05:57:44.612Z,15.27
2023-05-24T06:00:13.608Z,15.10
2023-05-24T06:02:41.954Z,21.33
2023-05-24T06:08:16.286Z,16.00
2023-05-24T06:11:04.499Z,19.53
2023-05-24T06:13:33.148Z,17.20
2023-05-24T06:16:21.156Z,16.97
2023-05-24T06:19:01.348Z,11.40
2023-05-24T06:21:33.114Z,15.97
2023-05-24T06:24:02.630Z,15.60
2023-05-24T06:26:32.122Z,19.53
2023-05-24T06:29:00.015Z,23.00
2023-05-24T06:31:28.001Z,18.37
2023-05-24T06:34:03.251Z,17.20
2023-05-24T06:36:34.146Z,22.03
2023-05-24T06:39:02.307Z,21.97
2023-05-24T06:41:31.552Z,23.47
2023-05-24T06:43:59.558Z,20.20
2023-05-24T06:46:27.673Z,17.40
2023-05-24T06:48:55.764Z,22.13
2023-05-24T06:51:23.790Z,22.70
2023-05-24T06:53:51.988Z,20.30
2023-05-24T06:56:38.373Z,21.73
2023-05-24T06:59:08.696Z,18.40
2023-05-24T07:01:39.611Z,16.17
2023-05-24T07:04:07.689Z,13.40
2023-05-24T07:06:35.776Z,19.77
2023-05-24T07:09:04.416Z,18.47
2023-05-24T07:11:32.753Z,19.63
2023-05-24T07:17:09.833Z,19.30
2023-05-24T07:22:25.423Z,15.50
2023-05-24T07:24:53.321Z,14.10
2023-05-24T07:27:22.556Z,15.90
2023-05-24T07:29:51.066Z,16.17
2023-05-24T07:32:20.370Z,13.40
2023-05-24T07:34:48.397Z,15.80
2023-05-24T07:37:16.644Z,13.10
2023-05-24T07:39:44.697Z,18.67
2023-05-24T07:42:12.642Z,19.20
2023-05-24T07:44:40.692Z,14.13
2023-05-24T07:47:08.659Z,19.67
2023-05-24T07:49:37.905Z,20.53
2023-05-24T07:52:06.140Z,16.07
2023-05-24T07:54:34.064Z,19.47
2023-05-24T07:57:02.008Z,14.20
2023-05-24T07:59:30.071Z,18.13
2023-05-24T08:02:01.682Z,17.63
2023-05-24T08:04:29.943Z,22.17
2023-05-24T08:06:59.420Z,16.97
2023-05-24T08:09:29.628Z,15.03
2023-05-24T08:11:57.930Z,13.37
2023-05-24T08:14:25.821Z,15.57
2023-05-24T08:16:53.820Z,16.87
2023-05-24T08:19:22.153Z,11.93
2023-05-24T08:21:50.302Z,12.43
2023-05-24T08:24:19.560Z,12.60
2023-05-24T08:26:47.466Z,11.07
2023-05-24T08:29:17.556Z,9.87
2023-05-24T08:31:45.549Z,10.87
2023-05-24T08:34:13.880Z,11.60
2023-05-24T08:36:43.771Z,13.00
2023-05-24T08:39:11.736Z,11.87
2023-05-24T08:41:42.081Z,11.33
2023-05-24T08:44:10.954Z,10.10
2023-05-24T08:46:40.004Z,12.90
2023-05-24T08:49:09.199Z,10.30
2023-05-24T08:51:38.605Z,11.83
2023-05-24T08:54:07.846Z,8.60
2023-05-24T08:56:35.902Z,11.93
2023-05-24T08:59:05.272Z,9.60
2023-05-24T09:01:35.419Z,10.20
2023-05-24T09:04:07.055Z,10.83
2023-05-24T09:06:35.059Z,11.47
2023-05-24T09:09:04.700Z,10.43
2023-05-24T09:11:33.528Z,11.50
2023-05-24T09:14:01.701Z,10.43
2023-05-24T09:16:31.186Z,10.17
2023-05-24T09:18:59.172Z,8.30
2023-05-24T09:21:27.883Z,12.73
2023-05-24T09:23:56.512Z,12.23
2023-05-24T09:26:24.886Z,8.83
2023-05-24T09:28:56.498Z,10.83
2023-05-24T09:31:35.362Z,8.97
2023-05-24T09:34:03.483Z,10.50
2023-05-24T09:36:33.962Z,11.40
2023-05-24T09:39:10.181Z,10.13
2023-05-24T09:41:38.754Z,11.97
2023-05-24T09:44:07.606Z,11.13
2023-05-24T09:46:40.033Z,9.50
2023-05-24T09:49:08.530Z,6.87
2023-05-24T09:51:38.932Z,9.63
2023-05-24T09:54:08.169Z,11.10
2023-05-24T09:56:36.237Z,10.03
2023-05-24T09:59:08.220Z,7.87
2023-05-24T10:01:36.719Z,10.77
2023-05-24T10:04:09.881Z,11.37
2023-05-24T10:06:38.949Z,10.13
2023-05-24T10:09:07.886Z,11.03
2023-05-24T10:11:56.370Z,10.50
2023-05-24T10:14:26.717Z,13.23
2023-05-24T10:16:54.868Z,16.03
2023-05-24T10:19:24.325Z,12.00
2023-05-24T10:21:54.245Z,9.43
2023-05-24T10:24:26.904Z,10.60
2023-05-24T10:26:57.385Z,9.57
2023-05-24T10:29:34.816Z,12.37
2023-05-24T10:32:04.451Z,9.33
2023-05-24T10:34:33.887Z,10.13
2023-05-24T10:37:02.981Z,11.23
2023-05-24T10:39:34.013Z,9.10
2023-05-24T10:42:06.131Z,7.43
2023-05-24T10:44:35.904Z,11.17
2023-05-24T10:47:11.180Z,8.23
2023-05-24T10:49:48.715Z,9.13
2023-05-24T10:52:16.941Z,9.07
2023-05-24T10:55:04.989Z,8.20
2023-05-24T10:57:33.629Z,7.27
2023-05-24T11:03:23.881Z,7.53
2023-05-24T11:05:55.422Z,7.83
2023-05-24T11:08:27.485Z,8.13
2023-05-24T11:11:23.230Z,8.67
2023-05-24T11:13:58.044Z,9.13
2023-05-24T11:16:37.330Z,7.83
2023-05-24T11:19:14.026Z,9.03
2023-05-24T11:21:45.178Z,6.50
2023-05-24T11:24:13.743Z,8.93
2023-05-24T11:26:42.085Z,10.47
2023-05-24T11:29:10.053Z,7.43
2023-05-24T11:31:43.225Z,7.43
2023-05-24T11:34:12.064Z,6.80
2023-05-24T11:36:41.021Z,8.50
2023-05-24T11:39:10.642Z,7.87
2023-05-24T11:41:39.751Z,9.60
2023-05-24T11:44:10.040Z,8.20
2023-05-24T11:46:39.396Z,8.13
2023-05-24T11:49:07.785Z,6.53
2023-05-24T11:51:37.501Z,5.73
2023-05-24T11:54:05.680Z,9.20
2023-05-24T11:56:34.924Z,6.00
2023-05-24T11:59:10.225Z,7.40
2023-05-24T12:01:39.179Z,7.83
2023-05-24T12:04:08.883Z,7.50
2023-05-24T12:06:40.061Z,7.30
2023-05-24T12:09:13.331Z,8.27
2023-05-24T12:11:44.656Z,8.53
2023-05-24T12:14:14.525Z,7.70
2023-05-24T12:16:43.718Z,7.13
2023-05-24T12:19:24.610Z,9.17
2023-05-24T12:22:01.466Z,10.13
2023-05-24T12:24:29.422Z,7.70
2023-05-24T12:27:03.079Z,10.77
2023-05-24T12:29:35.497Z,7.33
2023-05-24T12:32:03.945Z,9.00
2023-05-24T12:34:32.192Z,8.80
2023-05-24T12:37:01.150Z,8.83
2023-05-24T12:39:31.627Z,6.43
2023-05-24T12:42:02.518Z,9.93
2023-05-24T12:44:31.909Z,12.20
2023-05-24T12:47:00.221Z,7.93
2023-05-24T12:49:28.470Z,10.17
2023-05-24T12:51:57.748Z,10.33
2023-05-24T12:54:27.090Z,6.90
2023-05-24T12:56:57.007Z,13.03
2023-05-24T12:59:27.336Z,7.50
2023-05-24T13:01:55.400Z,11.93
2023-05-24T13:04:26.392Z,11.17
2023-05-24T13:06:54.629Z,7.60
2023-05-24T13:09:23.700Z,11.60
2023-05-24T13:11:52.300Z,11.33
2023-05-24T13:14:20.803Z,7.03
2023-05-24T13:16:50.785Z,9.20
2023-05-24T13:19:18.971Z,15.10
2023-05-24T13:21:46.999Z,8.53
2023-05-24T13:24:16.743Z,8.63
2023-05-24T13:26:44.922Z,8.50
2023-05-24T13:31:44.925Z,9.17
2023-05-24T13:34:14.697Z,10.97
2023-05-24T13:36:43.899Z,8.30
2023-05-24T13:39:16.074Z,9.43
2023-05-24T13:41:45.195Z,11.87
2023-05-24T13:44:13.442Z,10.17
2023-05-24T13:46:41.998Z,8.93
2023-05-24T13:49:11.801Z,10.73
2023-05-24T13:52:01.561Z,10.93
2023-05-24T13:54:29.643Z,12.87
2023-05-24T13:56:58.140Z,9.57
2023-05-24T13:59:26.988Z,12.00
2023-05-24T14:01:55.060Z,9.67
2023-05-24T14:04:23.406Z,10.10
2023-05-24T14:06:51.381Z,9.93
2023-05-24T14:09:21.314Z,9.67
2023-05-24T14:11:49.433Z,10.83
2023-05-24T14:16:51.663Z,6.30
2023-05-24T14:19:19.812Z,8.60
2023-05-24T14:21:47.775Z,9.87
2023-05-24T14:24:15.726Z,9.17
2023-05-24T14:26:47.462Z,10.70
2023-05-24T14:29:15.558Z,9.40
2023-05-24T14:31:44.582Z,8.97
2023-05-24T14:34:12.941Z,7.93
2023-05-24T14:36:41.688Z,10.67
2023-05-24T14:39:10.516Z,8.40
2023-05-24T14:41:59.578Z,8.13
2023-05-24T14:44:45.489Z,8.33
2023-05-24T14:47:13.687Z,8.63
2023-05-24T14:49:41.670Z,6.23
2023-05-24T14:52:09.668Z,4.53
2023-05-24T14:54:37.614Z,7.10
2023-05-24T14:57:07.848Z,6.37
2023-05-24T14:59:36.041Z,7.57
2023-05-24T15:02:03.969Z,7.73
2023-05-24T15:04:32.011Z,7.30
2023-05-24T15:07:00.032Z,6.77
2023-05-24T15:12:15.736Z,10.30
2023-05-24T15:14:43.701Z,6.73
2023-05-24T15:17:11.859Z,10.30
2023-05-24T15:19:40.014Z,8.53
2023-05-24T15:22:08.703Z,7.53
2023-05-24T15:24:38.775Z,8.57
2023-05-24T15:27:07.306Z,7.20
2023-05-24T15:29:36.673Z,7.33
2023-05-24T15:32:04.693Z,5.93
2023-05-24T15:34:32.718Z,10.80
2023-05-24T15:37:00.820Z,9.17
2023-05-24T15:39:28.913Z,6.93
2023-05-24T15:41:56.972Z,6.90
2023-05-24T15:44:24.923Z,8.50
2023-05-24T15:46:54.204Z,8.67
2023-05-24T15:49:23.520Z,7.60
2023-05-24T15:54:22.310Z,9.60
2023-05-24T15:56:50.630Z,8.10
2023-05-24T15:59:20.897Z,11.10
2023-05-24T16:01:49.510Z,9.03
2023-05-24T16:04:19.002Z,9.60
2023-05-24T16:06:47.080Z,12.47
2023-05-24T16:09:15.047Z,10.07
2023-05-24T16:11:42.956Z,8.87
2023-05-24T16:14:10.890Z,6.27
2023-05-24T16:16:38.955Z,5.00
2023-05-24T16:19:06.901Z,10.03
2023-05-24T16:21:36.385Z,8.17
2023-05-24T16:24:05.226Z,9.20
2023-05-24T16:26:33.551Z,8.50
2023-05-24T16:29:21.365Z,9.90
2023-05-24T16:31:49.396Z,7.10
2023-05-24T16:34:17.374Z,7.73
2023-05-24T16:37:06.469Z,9.03
2023-05-24T16:39:36.891Z,12.00
2023-05-24T16:42:07.097Z,10.30
2023-05-24T16:44:35.080Z,8.20
2023-05-24T16:47:03.351Z,7.57
2023-05-24T16:49:31.419Z,10.30
2023-05-24T16:51:59.432Z,7.60
2023-05-24T16:54:28.647Z,10.27
2023-05-24T16:56:56.697Z,13.37
2023-05-24T16:59:24.704Z,9.77
2023-05-24T17:01:52.667Z,8.40
2023-05-24T17:04:20.708Z,8.23
2023-05-24T17:06:48.610Z,10.40
2023-05-24T17:09:16.683Z,8.90
2023-05-24T17:11:45.945Z,7.40
2023-05-24T17:14:13.889Z,9.13
2023-05-24T17:16:41.981Z,9.07
2023-05-24T17:19:12.668Z,12.57
2023-05-24T17:21:40.929Z,7.37
2023-05-24T17:24:08.857Z,7.83
2023-05-24T17:26:38.916Z,8.43
2023-05-24T17:29:08.168Z,8.53
2023-05-24T17:31:36.126Z,9.63
2023-05-24T17:34:04.477Z,9.47
2023-05-24T17:36:36.298Z,12.50
2023-05-24T17:39:04.695Z,11.93
2023-05-24T17:41:32.684Z,9.40
2023-05-24T17:44:00.912Z,8.93
2023-05-24T17:46:30.223Z,10.47
2023-05-24T17:48:58.362Z,8.77
2023-05-24T17:51:26.265Z,10.20
2023-05-24T17:53:54.335Z,10.97
2023-05-24T17:56:23.267Z,7.87
2023-05-24T17:58:51.568Z,8.17
2023-05-24T18:01:19.767Z,9.33
2023-05-24T18:03:49.288Z,10.83
2023-05-24T18:06:17.207Z,8.40
2023-05-24T18:08:45.158Z,12.97
2023-05-24T18:11:13.916Z,10.80
2023-05-24T18:13:43.132Z,9.57
2023-05-24T18:16:31.079Z,6.10
2023-05-24T18:19:00.565Z,7.47
2023-05-24T18:21:28.446Z,8.17
2023-05-24T18:23:56.367Z,10.90
2023-05-24T18:26:24.331Z,8.13
2023-05-24T18:28:52.544Z,8.80
2023-05-24T18:31:21.853Z,7.47
2023-05-24T18:33:49.809Z,9.27
2023-05-24T18:36:19.276Z,8.80
2023-05-24T18:38:47.430Z,9.43
2023-05-24T18:41:16.501Z,11.43
2023-05-24T18:43:44.520Z,8.00
2023-05-24T18:46:13.732Z,8.57
2023-05-24T18:48:41.827Z,8.70
2023-05-24T18:51:09.931Z,8.53
2023-05-24T18:53:39.952Z,8.40
2023-05-24T18:56:08.081Z,8.17
2023-05-24T18:58:36.027Z,9.87
2023-05-24T19:01:04.221Z,6.93
2023-05-24T19:03:32.174Z,7.63
2023-05-24T19:06:00.263Z,8.00
2023-05-24T19:08:28.196Z,8.40
2023-05-24T19:10:57.507Z,10.53
2023-05-24T19:13:25.812Z,8.77
2023-05-24T19:15:53.760Z,11.60
2023-05-24T19:18:21.728Z,11.10
2023-05-24T19:20:49.939Z,10.47
2023-05-24T19:23:17.996Z,6.37
2023-05-24T19:25:49.968Z,8.07
2023-05-24T19:28:19.561Z,7.70
2023-05-24T19:30:47.460Z,6.57
2023-05-24T19:33:15.480Z,8.57
2023-05-24T19:35:43.615Z,10.30
2023-05-24T19:38:12.008Z,8.27
2023-05-24T19:40:39.957Z,8.40
2023-05-24T19:43:07.889Z,6.93
2023-05-24T19:45:37.245Z,10.90
2023-05-24T19:48:23.339Z,7.57
2023-05-24T19:50:51.903Z,8.93
2023-05-24T19:53:20.019Z,9.83
2023-05-24T19:55:47.956Z,11.83
2023-05-24T19:58:16.148Z,9.97
2023-05-24T20:00:45.902Z,8.80
2023-05-24T20:03:14.114Z,7.77
2023-05-24T20:05:42.311Z,9.20
2023-05-24T20:08:10.581Z,7.73
2023-05-24T20:10:38.950Z,7.80
2023-05-24T20:13:07.092Z,10.10
2023-05-24T20:15:35.019Z,9.13
2023-05-24T20:18:04.480Z,8.37
2023-05-24T20:20:32.518Z,6.97
2023-05-24T20:23:00.499Z,9.83
2023-05-24T20:25:28.656Z,8.90
2023-05-24T20:27:56.587Z,10.07
2023-05-24T20:30:24.586Z,10.13
2023-05-24T20:32:52.704Z,8.30
2023-05-24T20:35:21.962Z,6.20
2023-05-24T20:37:49.850Z,5.70
2023-05-24T20:40:22.904Z,6.27
2023-05-24T20:42:50.896Z,6.93
2023-05-24T20:45:21.295Z,8.67
2023-05-24T20:47:49.270Z,6.13
2023-05-24T20:50:17.368Z,7.50
2023-05-24T20:52:46.675Z,11.20
2023-05-24T20:55:16.199Z,6.17
2023-05-24T20:57:44.710Z,9.10
2023-05-24T21:00:13.344Z,7.63
2023-05-24T21:02:41.305Z,6.80
2023-05-24T21:05:10.073Z,11.40
2023-05-24T21:07:37.988Z,7.20
2023-05-24T21:10:09.276Z,7.23
2023-05-24T21:12:37.152Z,9.87
2023-05-24T21:15:05.619Z,5.63
2023-05-24T21:17:33.693Z,10.20
2023-05-24T21:20:01.614Z,8.70
2023-05-24T21:22:29.573Z,6.23
2023-05-24T21:24:57.577Z,10.47
2023-05-24T21:27:27.376Z,9.03
2023-05-24T21:29:55.326Z,5.97
2023-05-24T21:32:23.297Z,9.40
2023-05-24T21:34:51.241Z,8.20
2023-05-24T21:37:19.185Z,4.30
2023-05-24T21:39:47.907Z,7.07
2023-05-24T21:42:15.857Z,6.10
2023-05-24T21:44:45.114Z,7.00
2023-05-24T21:47:13.044Z,7.97
2023-05-24T21:50:00.292Z,7.20
2023-05-24T21:52:28.257Z,7.10
2023-05-24T21:54:56.197Z,8.67
2023-05-24T21:57:26.299Z,6.83
2023-05-24T21:59:55.882Z,10.07
2023-05-24T22:02:23.984Z,8.30
2023-05-24T22:04:51.880Z,9.63
2023-05-24T22:07:19.824Z,9.77
2023-05-24T22:09:47.792Z,7.07
2023-05-24T22:12:15.717Z,7.37
2023-05-24T22:14:43.636Z,8.07
2023-05-24T22:17:14.112Z,7.17
2023-05-24T22:19:42.028Z,8.83
2023-05-24T22:22:09.977Z,9.97
2023-05-24T22:24:38.042Z,7.57
2023-05-24T22:27:09.495Z,8.17
2023-05-24T22:29:37.402Z,9.40
2023-05-24T22:32:05.844Z,10.50
2023-05-24T22:34:35.231Z,9.97
2023-05-24T22:37:03.183Z,9.30
2023-05-24T22:39:31.295Z,7.00
2023-05-24T22:41:59.322Z,8.77
2023-05-24T22:44:27.267Z,6.80
2023-05-24T22:46:56.300Z,12.00
2023-05-24T22:49:24.278Z,10.63
2023-05-24T22:51:54.262Z,9.23
2023-05-24T22:54:22.240Z,8.27
2023-05-24T22:56:50.204Z,7.13
2023-05-24T22:59:18.186Z,7.70
2023-05-24T23:01:46.171Z,9.03
2023-05-24T23:04:20.394Z,7.53
2023-05-24T23:06:52.436Z,11.03
2023-05-24T23:09:33.860Z,9.77
2023-05-24T23:12:02.206Z,10.57
2023-05-24T23:14:31.164Z,11.00
2023-05-24T23:17:02.400Z,10.20
2023-05-24T23:19:31.030Z,13.23
2023-05-24T23:21:59.047Z,15.10
2023-05-24T23:24:28.274Z,12.43
2023-05-24T23:26:56.935Z,13.47
2023-05-24T23:29:24.847Z,10.67
2023-05-24T23:31:52.784Z,15.13
2023-05-24T23:34:20.715Z,12.77
2023-05-24T23:36:48.682Z,13.37
2023-05-24T23:39:16.724Z,11.47
2023-05-24T23:41:46.393Z,10.83
2023-05-24T23:44:14.313Z,13.47
2023-05-24T23:46:42.403Z,12.67
2023-05-24T23:49:10.379Z,11.70
2023-05-24T23:51:38.294Z,14.67
2023-05-24T23:54:06.630Z,11.03
2023-05-24T23:56:34.556Z,13.33
2023-05-24T23:59:04.739Z,13.00
